Aeroporto :
LOGIN :

Iscrizione | Disclaimer

   EN    FR    IT 

 










Sommario :    VFR   VFR Marginale   IFR   IFR Intensivo   IFR Molto Intensivo
Visibilità : 
Base nubi : 
>= 8 km
>= 3000ft
5 / 8 km
1000 / 3000 ft
1500m / 5 km
500 / 1000 ft
800 / 1500m
200 / 500 ft
< 800m
< 200 ft
Simboli :   Temporali  Nebbia  Neve Forte  Precipitazioni Forti  Vento > 20 kt
SIGMETs :   Varie  Temporali  Ghiacco  Turbolenza  Onda orograficha  Ceneri Vulcaniche






- Altitudine del aeroporto : 156 ft
- Codice IATA : OMO


LQMO - Mostar

ULTIMO METAR :
  • 240830Z VRB02KT 9999 FEW025 SCT035 BKN070 14/08 Q1005

METARs OBSOLETI :
  • 240800Z 17004KT 130V210 9999 FEW030 SCT040 BKN070 14/07 Q1006
  • 240730Z 14007KT 090V170 9999 FEW030 FEW035TCU SCT040 14/07 Q1006
  • 240700Z 15006KT 110V190 9999 FEW030 SCT050 13/07 Q1006
  • 240630Z 15007KT 9999 FEW025 SCT045 13/08 Q1006
  • 240600Z 13005KT 9999 FEW025 BKN055 11/09 Q1006
  • 240530Z 13004KT 9999 FEW025 BKN055 11/10 Q1005
  • 240500Z VRB03KT 9999 FEW040 SCT060 10/09 Q1005
  • 240430Z 20004KT 150V260 9999 SCT060 10/09 Q1005
  • 240400Z VRB02KT 9999 FEW035 BKN045 10/09 Q1005

TAF TAF LQMO
Valido dal 24 a 06 ore il 25 a 06 ore UTC


240500Z 2406/2506 16006KT 9999 FEW025 BKN050 TX14/2412Z TN07/2505Z
TEMPO 2406/2417 22012KT 5000 SHRA SCT035TCU BKN045
PROB30
TEMPO 2409/2415 22015G25KT 3000 TSRA FEW030CB BKN040
PROB40
TEMPO 2500/2506 1200 BCFG



MetMap, La meteo Aeronautica in un colpo d'occhio ! - Copyright ORBIFLY Dicembre 2007 - Disclaimer

ORBIFLY MET'MAP TEAM :

Programmazione e sviluppo : Alexandra Zaïnal
Concezione : Baudouin d'Aumeries
Supporto tecnico e logistico : Manuel Goepfert
Aiuto : Marc-Olivier Méhu
Aiuto per la traduzione : Arnaldo La Scala




FONTI E CREDITI :

   NOAA